sensor_id;sensor_type;location;lat;lon;timestamp;P1;durP1;ratioP1;P2;durP2;ratioP2
74223;SDS011;62585;49.706;18.216;2022-12-29T00:01:55;4.82;;;1.98;;
74223;SDS011;62585;49.706;18.216;2022-12-29T00:04:21;6.78;;;2.65;;
74223;SDS011;62585;49.706;18.216;2022-12-29T00:06:47;4.85;;;2.55;;
74223;SDS011;62585;49.706;18.216;2022-12-29T00:09:15;5.57;;;2.47;;
74223;SDS011;62585;49.706;18.216;2022-12-29T00:11:41;7.13;;;2.97;;
74223;SDS011;62585;49.706;18.216;2022-12-29T00:14:08;5.55;;;2.63;;
74223;SDS011;62585;49.706;18.216;2022-12-29T00:16:53;7.72;;;3.38;;
74223;SDS011;62585;49.706;18.216;2022-12-29T00:19:19;7.00;;;3.20;;
74223;SDS011;62585;49.706;18.216;2022-12-29T00:22:04;6.18;;;2.78;;
74223;SDS011;62585;49.706;18.216;2022-12-29T00:24:48;4.97;;;2.67;;
74223;SDS011;62585;49.706;18.216;2022-12-29T00:27:20;5.35;;;2.45;;
74223;SDS011;62585;49.706;18.216;2022-12-29T00:30:08;6.28;;;2.28;;
74223;SDS011;62585;49.706;18.216;2022-12-29T00:32:54;4.38;;;2.33;;
74223;SDS011;62585;49.706;18.216;2022-12-29T00:35:40;5.10;;;2.33;;
74223;SDS011;62585;49.706;18.216;2022-12-29T00:38:11;6.68;;;2.65;;
74223;SDS011;62585;49.706;18.216;2022-12-29T00:46:25;3.13;;;1.95;;
74223;SDS011;62585;49.706;18.216;2022-12-29T00:48:51;3.53;;;2.08;;
74223;SDS011;62585;49.706;18.216;2022-12-29T00:51:35;4.68;;;2.38;;
74223;SDS011;62585;49.706;18.216;2022-12-29T00:54:01;6.45;;;2.50;;
74223;SDS011;62585;49.706;18.216;2022-12-29T00:56:27;3.72;;;1.98;;
74223;SDS011;62585;49.706;18.216;2022-12-29T00:58:52;4.68;;;2.42;;
74223;SDS011;62585;49.706;18.216;2022-12-29T01:01:18;3.38;;;2.38;;
74223;SDS011;62585;49.706;18.216;2022-12-29T01:03:44;3.50;;;1.58;;
74223;SDS011;62585;49.706;18.216;2022-12-29T01:06:11;6.00;;;1.65;;
74223;SDS011;62585;49.706;18.216;2022-12-29T01:08:36;5.03;;;2.17;;
74223;SDS011;62585;49.706;18.216;2022-12-29T01:11:04;7.22;;;2.50;;
74223;SDS011;62585;49.706;18.216;2022-12-29T01:13:31;4.35;;;2.50;;
74223;SDS011;62585;49.706;18.216;2022-12-29T01:15:58;6.65;;;2.22;;
74223;SDS011;62585;49.706;18.216;2022-12-29T01:18:24;6.03;;;3.00;;
74223;SDS011;62585;49.706;18.216;2022-12-29T01:20:51;7.82;;;3.13;;
74223;SDS011;62585;49.706;18.216;2022-12-29T01:23:22;3.72;;;2.15;;
74223;SDS011;62585;49.706;18.216;2022-12-29T01:25:48;6.15;;;3.17;;
74223;SDS011;62585;49.706;18.216;2022-12-29T01:28:14;5.10;;;2.80;;
74223;SDS011;62585;49.706;18.216;2022-12-29T01:30:40;4.22;;;2.70;;
74223;SDS011;62585;49.706;18.216;2022-12-29T01:33:05;5.05;;;2.40;;
74223;SDS011;62585;49.706;18.216;2022-12-29T01:35:31;6.35;;;2.42;;
74223;SDS011;62585;49.706;18.216;2022-12-29T01:37:57;3.92;;;2.22;;
74223;SDS011;62585;49.706;18.216;2022-12-29T01:40:23;5.38;;;2.70;;
74223;SDS011;62585;49.706;18.216;2022-12-29T01:42:49;4.82;;;2.13;;
74223;SDS011;62585;49.706;18.216;2022-12-29T01:45:15;2.85;;;1.30;;
74223;SDS011;62585;49.706;18.216;2022-12-29T01:50:22;3.92;;;1.73;;
74223;SDS011;62585;49.706;18.216;2022-12-29T01:53:08;3.90;;;1.85;;
74223;SDS011;62585;49.706;18.216;2022-12-29T01:55:38;3.10;;;1.80;;
74223;SDS011;62585;49.706;18.216;2022-12-29T01:58:07;3.33;;;1.50;;
74223;SDS011;62585;49.706;18.216;2022-12-29T02:00:37;1.73;;;1.40;;
74223;SDS011;62585;49.706;18.216;2022-12-29T02:03:03;2.83;;;1.15;;
74223;SDS011;62585;49.706;18.216;2022-12-29T02:05:38;1.67;;;1.02;;
74223;SDS011;62585;49.706;18.216;2022-12-29T02:08:09;1.83;;;1.02;;
74223;SDS011;62585;49.706;18.216;2022-12-29T02:10:36;3.38;;;1.30;;
74223;SDS011;62585;49.706;18.216;2022-12-29T02:13:03;2.65;;;1.23;;
74223;SDS011;62585;49.706;18.216;2022-12-29T02:15:41;3.22;;;1.40;;
74223;SDS011;62585;49.706;18.216;2022-12-29T02:18:45;2.67;;;1.80;;
74223;SDS011;62585;49.706;18.216;2022-12-29T02:39:53;1.70;;;1.10;;
74223;SDS011;62585;49.706;18.216;2022-12-29T02:50:17;3.22;;;1.40;;
74223;SDS011;62585;49.706;18.216;2022-12-29T02:52:54;0.73;;;0.55;;
74223;SDS011;62585;49.706;18.216;2022-12-29T02:55:23;3.53;;;1.67;;
74223;SDS011;62585;49.706;18.216;2022-12-29T02:57:49;2.83;;;1.25;;
74223;SDS011;62585;49.706;18.216;2022-12-29T03:00:46;8.02;;;1.80;;
74223;SDS011;62585;49.706;18.216;2022-12-29T03:08:54;3.13;;;1.67;;
74223;SDS011;62585;49.706;18.216;2022-12-29T03:11:27;3.67;;;1.50;;
74223;SDS011;62585;49.706;18.216;2022-12-29T03:14:26;2.45;;;1.40;;
74223;SDS011;62585;49.706;18.216;2022-12-29T03:17:20;3.17;;;1.77;;
74223;SDS011;62585;49.706;18.216;2022-12-29T03:19:54;3.00;;;1.80;;
74223;SDS011;62585;49.706;18.216;2022-12-29T03:22:27;4.25;;;1.52;;
74223;SDS011;62585;49.706;18.216;2022-12-29T03:25:43;2.38;;;1.10;;
74223;SDS011;62585;49.706;18.216;2022-12-29T03:28:01;1.42;;;0.77;;
74223;SDS011;62585;49.706;18.216;2022-12-29T03:30:32;3.72;;;2.05;;
74223;SDS011;62585;49.706;18.216;2022-12-29T03:33:04;4.03;;;1.60;;
74223;SDS011;62585;49.706;18.216;2022-12-29T03:35:38;2.70;;;1.63;;
74223;SDS011;62585;49.706;18.216;2022-12-29T03:38:12;2.42;;;1.73;;
74223;SDS011;62585;49.706;18.216;2022-12-29T03:40:49;3.38;;;1.67;;
74223;SDS011;62585;49.706;18.216;2022-12-29T03:43:17;4.22;;;1.77;;
74223;SDS011;62585;49.706;18.216;2022-12-29T03:45:44;5.22;;;2.15;;
74223;SDS011;62585;49.706;18.216;2022-12-29T03:48:10;4.47;;;2.15;;
74223;SDS011;62585;49.706;18.216;2022-12-29T03:50:35;2.90;;;1.75;;
74223;SDS011;62585;49.706;18.216;2022-12-29T03:53:01;2.38;;;1.38;;
74223;SDS011;62585;49.706;18.216;2022-12-29T03:55:27;4.10;;;2.15;;
74223;SDS011;62585;49.706;18.216;2022-12-29T03:57:52;5.63;;;2.03;;
74223;SDS011;62585;49.706;18.216;2022-12-29T04:00:18;3.85;;;1.60;;
74223;SDS011;62585;49.706;18.216;2022-12-29T04:02:44;4.05;;;1.92;;
74223;SDS011;62585;49.706;18.216;2022-12-29T04:05:10;2.58;;;1.83;;
74223;SDS011;62585;49.706;18.216;2022-12-29T04:07:36;2.33;;;1.33;;
74223;SDS011;62585;49.706;18.216;2022-12-29T04:10:02;3.97;;;2.10;;
74223;SDS011;62585;49.706;18.216;2022-12-29T04:12:28;3.63;;;1.52;;
74223;SDS011;62585;49.706;18.216;2022-12-29T04:14:54;3.70;;;2.00;;
74223;SDS011;62585;49.706;18.216;2022-12-29T04:17:19;4.15;;;2.10;;
74223;SDS011;62585;49.706;18.216;2022-12-29T04:19:45;3.00;;;1.42;;
74223;SDS011;62585;49.706;18.216;2022-12-29T04:22:11;2.97;;;1.52;;
74223;SDS011;62585;49.706;18.216;2022-12-29T04:24:37;3.30;;;1.98;;
74223;SDS011;62585;49.706;18.216;2022-12-29T04:27:03;6.20;;;2.17;;
74223;SDS011;62585;49.706;18.216;2022-12-29T04:29:29;4.15;;;1.90;;
74223;SDS011;62585;49.706;18.216;2022-12-29T04:31:57;3.60;;;1.83;;
74223;SDS011;62585;49.706;18.216;2022-12-29T04:34:23;7.05;;;2.33;;
74223;SDS011;62585;49.706;18.216;2022-12-29T04:36:49;3.28;;;1.80;;
74223;SDS011;62585;49.706;18.216;2022-12-29T04:39:15;5.32;;;1.85;;
74223;SDS011;62585;49.706;18.216;2022-12-29T04:41:40;2.85;;;1.90;;
74223;SDS011;62585;49.706;18.216;2022-12-29T04:44:06;4.75;;;2.22;;
74223;SDS011;62585;49.706;18.216;2022-12-29T04:46:32;5.03;;;1.63;;
74223;SDS011;62585;49.706;18.216;2022-12-29T04:48:58;5.10;;;1.92;;
74223;SDS011;62585;49.706;18.216;2022-12-29T04:51:25;3.80;;;2.42;;
74223;SDS011;62585;49.706;18.216;2022-12-29T04:53:51;5.47;;;2.28;;
74223;SDS011;62585;49.706;18.216;2022-12-29T04:56:17;3.83;;;2.50;;
74223;SDS011;62585;49.706;18.216;2022-12-29T04:58:43;4.22;;;2.30;;
74223;SDS011;62585;49.706;18.216;2022-12-29T05:01:08;4.15;;;1.98;;
74223;SDS011;62585;49.706;18.216;2022-12-29T05:03:37;2.53;;;1.92;;
74223;SDS011;62585;49.706;18.216;2022-12-29T05:06:03;1.77;;;1.05;;
74223;SDS011;62585;49.706;18.216;2022-12-29T05:08:29;2.70;;;1.50;;
74223;SDS011;62585;49.706;18.216;2022-12-29T05:10:54;3.22;;;1.70;;
74223;SDS011;62585;49.706;18.216;2022-12-29T05:13:20;2.95;;;1.38;;
74223;SDS011;62585;49.706;18.216;2022-12-29T05:15:50;7.35;;;2.35;;
74223;SDS011;62585;49.706;18.216;2022-12-29T05:18:16;4.68;;;2.45;;
74223;SDS011;62585;49.706;18.216;2022-12-29T05:20:42;5.75;;;2.70;;
74223;SDS011;62585;49.706;18.216;2022-12-29T05:23:09;5.28;;;2.53;;
74223;SDS011;62585;49.706;18.216;2022-12-29T05:25:35;6.43;;;2.65;;
74223;SDS011;62585;49.706;18.216;2022-12-29T05:28:01;5.78;;;2.85;;
74223;SDS011;62585;49.706;18.216;2022-12-29T05:30:26;8.07;;;2.92;;
74223;SDS011;62585;49.706;18.216;2022-12-29T05:32:52;4.63;;;2.25;;
74223;SDS011;62585;49.706;18.216;2022-12-29T05:35:18;5.80;;;2.63;;
74223;SDS011;62585;49.706;18.216;2022-12-29T05:37:43;5.25;;;2.85;;
74223;SDS011;62585;49.706;18.216;2022-12-29T05:40:09;6.72;;;2.90;;
74223;SDS011;62585;49.706;18.216;2022-12-29T05:42:36;4.93;;;2.58;;
74223;SDS011;62585;49.706;18.216;2022-12-29T05:45:01;7.10;;;3.05;;
74223;SDS011;62585;49.706;18.216;2022-12-29T05:47:27;5.60;;;2.58;;
74223;SDS011;62585;49.706;18.216;2022-12-29T05:49:53;4.18;;;2.63;;
74223;SDS011;62585;49.706;18.216;2022-12-29T05:52:19;7.03;;;2.90;;
74223;SDS011;62585;49.706;18.216;2022-12-29T05:54:45;4.85;;;2.40;;
74223;SDS011;62585;49.706;18.216;2022-12-29T05:57:10;4.78;;;2.60;;
74223;SDS011;62585;49.706;18.216;2022-12-29T05:59:36;5.75;;;2.75;;
74223;SDS011;62585;49.706;18.216;2022-12-29T06:02:02;4.57;;;2.30;;
74223;SDS011;62585;49.706;18.216;2022-12-29T06:04:27;5.07;;;2.60;;
74223;SDS011;62585;49.706;18.216;2022-12-29T06:06:53;5.40;;;2.90;;
74223;SDS011;62585;49.706;18.216;2022-12-29T06:09:19;6.13;;;2.78;;
74223;SDS011;62585;49.706;18.216;2022-12-29T06:11:47;3.42;;;1.92;;
74223;SDS011;62585;49.706;18.216;2022-12-29T06:14:12;5.45;;;2.30;;
74223;SDS011;62585;49.706;18.216;2022-12-29T06:16:38;7.53;;;2.38;;
74223;SDS011;62585;49.706;18.216;2022-12-29T06:19:04;6.05;;;2.45;;
74223;SDS011;62585;49.706;18.216;2022-12-29T06:21:30;6.57;;;3.15;;
74223;SDS011;62585;49.706;18.216;2022-12-29T06:23:55;4.93;;;2.42;;
74223;SDS011;62585;49.706;18.216;2022-12-29T06:26:21;6.10;;;3.00;;
74223;SDS011;62585;49.706;18.216;2022-12-29T06:28:47;6.47;;;2.85;;
74223;SDS011;62585;49.706;18.216;2022-12-29T06:31:13;4.03;;;2.38;;
74223;SDS011;62585;49.706;18.216;2022-12-29T06:33:39;4.43;;;2.38;;
74223;SDS011;62585;49.706;18.216;2022-12-29T06:36:04;6.13;;;2.97;;
74223;SDS011;62585;49.706;18.216;2022-12-29T06:38:30;5.43;;;2.80;;
74223;SDS011;62585;49.706;18.216;2022-12-29T06:40:56;5.20;;;2.95;;
74223;SDS011;62585;49.706;18.216;2022-12-29T06:43:22;5.38;;;3.05;;
74223;SDS011;62585;49.706;18.216;2022-12-29T06:45:48;5.50;;;2.63;;
74223;SDS011;62585;49.706;18.216;2022-12-29T06:48:13;5.32;;;3.08;;
74223;SDS011;62585;49.706;18.216;2022-12-29T06:50:39;4.03;;;2.60;;
74223;SDS011;62585;49.706;18.216;2022-12-29T06:53:05;7.18;;;2.83;;
74223;SDS011;62585;49.706;18.216;2022-12-29T06:55:31;8.43;;;3.15;;
74223;SDS011;62585;49.706;18.216;2022-12-29T06:57:57;5.75;;;3.03;;
74223;SDS011;62585;49.706;18.216;2022-12-29T07:00:24;6.68;;;3.35;;
74223;SDS011;62585;49.706;18.216;2022-12-29T07:02:50;6.18;;;2.95;;
74223;SDS011;62585;49.706;18.216;2022-12-29T07:05:16;5.25;;;2.47;;
74223;SDS011;62585;49.706;18.216;2022-12-29T07:07:42;6.47;;;3.00;;
74223;SDS011;62585;49.706;18.216;2022-12-29T07:10:08;6.63;;;3.38;;
74223;SDS011;62585;49.706;18.216;2022-12-29T07:12:33;7.35;;;3.80;;
74223;SDS011;62585;49.706;18.216;2022-12-29T07:14:59;9.00;;;3.05;;
74223;SDS011;62585;49.706;18.216;2022-12-29T07:17:25;4.18;;;2.50;;
74223;SDS011;62585;49.706;18.216;2022-12-29T07:19:51;3.83;;;1.95;;
74223;SDS011;62585;49.706;18.216;2022-12-29T07:22:16;3.75;;;2.42;;
74223;SDS011;62585;49.706;18.216;2022-12-29T07:24:42;4.55;;;2.60;;
74223;SDS011;62585;49.706;18.216;2022-12-29T07:27:08;8.30;;;3.70;;
74223;SDS011;62585;49.706;18.216;2022-12-29T07:29:36;6.47;;;3.33;;
74223;SDS011;62585;49.706;18.216;2022-12-29T07:32:03;5.25;;;3.22;;
74223;SDS011;62585;49.706;18.216;2022-12-29T07:34:29;5.97;;;3.38;;
74223;SDS011;62585;49.706;18.216;2022-12-29T07:36:55;8.80;;;3.67;;
74223;SDS011;62585;49.706;18.216;2022-12-29T07:39:22;8.88;;;3.88;;
74223;SDS011;62585;49.706;18.216;2022-12-29T07:41:47;8.88;;;3.63;;
74223;SDS011;62585;49.706;18.216;2022-12-29T07:44:13;8.73;;;3.40;;
74223;SDS011;62585;49.706;18.216;2022-12-29T07:46:39;6.38;;;3.03;;
74223;SDS011;62585;49.706;18.216;2022-12-29T07:49:05;7.50;;;3.30;;
74223;SDS011;62585;49.706;18.216;2022-12-29T07:51:30;7.10;;;3.42;;
74223;SDS011;62585;49.706;18.216;2022-12-29T07:53:57;8.13;;;3.20;;
74223;SDS011;62585;49.706;18.216;2022-12-29T07:56:25;6.63;;;3.25;;
74223;SDS011;62585;49.706;18.216;2022-12-29T07:58:51;4.32;;;2.90;;
74223;SDS011;62585;49.706;18.216;2022-12-29T08:01:17;9.15;;;4.10;;
74223;SDS011;62585;49.706;18.216;2022-12-29T08:03:43;5.57;;;3.08;;
74223;SDS011;62585;49.706;18.216;2022-12-29T08:06:09;6.13;;;2.88;;
74223;SDS011;62585;49.706;18.216;2022-12-29T08:08:36;6.80;;;3.13;;
74223;SDS011;62585;49.706;18.216;2022-12-29T08:11:01;7.25;;;3.35;;
74223;SDS011;62585;49.706;18.216;2022-12-29T08:13:28;16.98;;;10.18;;
74223;SDS011;62585;49.706;18.216;2022-12-29T08:15:53;10.25;;;5.75;;
74223;SDS011;62585;49.706;18.216;2022-12-29T08:18:19;4.75;;;2.53;;
74223;SDS011;62585;49.706;18.216;2022-12-29T08:20:44;6.85;;;2.40;;
74223;SDS011;62585;49.706;18.216;2022-12-29T08:23:10;6.65;;;3.38;;
74223;SDS011;62585;49.706;18.216;2022-12-29T08:25:36;8.52;;;3.72;;
74223;SDS011;62585;49.706;18.216;2022-12-29T08:28:02;5.78;;;3.05;;
74223;SDS011;62585;49.706;18.216;2022-12-29T08:30:28;4.68;;;3.10;;
74223;SDS011;62585;49.706;18.216;2022-12-29T08:32:54;8.30;;;3.60;;
74223;SDS011;62585;49.706;18.216;2022-12-29T08:35:19;6.85;;;3.53;;
74223;SDS011;62585;49.706;18.216;2022-12-29T08:37:45;4.25;;;2.75;;
74223;SDS011;62585;49.706;18.216;2022-12-29T08:40:11;5.50;;;3.38;;
74223;SDS011;62585;49.706;18.216;2022-12-29T08:42:37;6.15;;;3.38;;
74223;SDS011;62585;49.706;18.216;2022-12-29T08:45:02;4.93;;;2.78;;
74223;SDS011;62585;49.706;18.216;2022-12-29T08:47:29;7.82;;;3.70;;
74223;SDS011;62585;49.706;18.216;2022-12-29T08:49:56;6.30;;;3.45;;
74223;SDS011;62585;49.706;18.216;2022-12-29T08:52:29;6.90;;;3.33;;
74223;SDS011;62585;49.706;18.216;2022-12-29T08:54:57;6.05;;;3.85;;
74223;SDS011;62585;49.706;18.216;2022-12-29T08:57:23;5.25;;;3.00;;
74223;SDS011;62585;49.706;18.216;2022-12-29T08:59:48;8.13;;;3.53;;
74223;SDS011;62585;49.706;18.216;2022-12-29T09:02:14;5.97;;;3.15;;
74223;SDS011;62585;49.706;18.216;2022-12-29T09:04:40;8.75;;;4.28;;
74223;SDS011;62585;49.706;18.216;2022-12-29T09:07:06;5.97;;;2.90;;
74223;SDS011;62585;49.706;18.216;2022-12-29T09:09:32;8.27;;;4.90;;
74223;SDS011;62585;49.706;18.216;2022-12-29T09:11:58;10.85;;;4.88;;
74223;SDS011;62585;49.706;18.216;2022-12-29T09:14:23;8.60;;;4.93;;
74223;SDS011;62585;49.706;18.216;2022-12-29T09:16:53;10.13;;;5.43;;
74223;SDS011;62585;49.706;18.216;2022-12-29T09:19:37;7.68;;;4.90;;
74223;SDS011;62585;49.706;18.216;2022-12-29T09:22:03;11.18;;;4.85;;
74223;SDS011;62585;49.706;18.216;2022-12-29T09:24:29;10.55;;;4.40;;
74223;SDS011;62585;49.706;18.216;2022-12-29T09:26:56;11.98;;;4.45;;
74223;SDS011;62585;49.706;18.216;2022-12-29T09:29:22;10.25;;;3.78;;
74223;SDS011;62585;49.706;18.216;2022-12-29T09:31:48;13.38;;;4.32;;
74223;SDS011;62585;49.706;18.216;2022-12-29T09:34:13;8.10;;;3.38;;
74223;SDS011;62585;49.706;18.216;2022-12-29T09:36:39;4.25;;;2.97;;
74223;SDS011;62585;49.706;18.216;2022-12-29T09:39:05;6.35;;;2.92;;
74223;SDS011;62585;49.706;18.216;2022-12-29T09:41:34;7.47;;;3.47;;
74223;SDS011;62585;49.706;18.216;2022-12-29T09:44:20;6.90;;;3.70;;
74223;SDS011;62585;49.706;18.216;2022-12-29T09:46:54;10.50;;;4.18;;
74223;SDS011;62585;49.706;18.216;2022-12-29T09:49:44;5.75;;;3.38;;
74223;SDS011;62585;49.706;18.216;2022-12-29T09:52:28;5.70;;;3.13;;
74223;SDS011;62585;49.706;18.216;2022-12-29T09:55:03;8.30;;;3.95;;
74223;SDS011;62585;49.706;18.216;2022-12-29T09:57:35;7.93;;;3.95;;
74223;SDS011;62585;49.706;18.216;2022-12-29T10:00:11;12.57;;;5.00;;
74223;SDS011;62585;49.706;18.216;2022-12-29T10:05:22;8.13;;;4.50;;
74223;SDS011;62585;49.706;18.216;2022-12-29T10:08:03;11.18;;;4.95;;
74223;SDS011;62585;49.706;18.216;2022-12-29T10:10:35;9.55;;;4.97;;
74223;SDS011;62585;49.706;18.216;2022-12-29T10:13:17;9.90;;;4.07;;
74223;SDS011;62585;49.706;18.216;2022-12-29T10:18:37;6.38;;;3.83;;
74223;SDS011;62585;49.706;18.216;2022-12-29T10:24:04;10.93;;;4.25;;
74223;SDS011;62585;49.706;18.216;2022-12-29T10:26:37;6.80;;;4.03;;
74223;SDS011;62585;49.706;18.216;2022-12-29T10:29:09;10.48;;;3.95;;
74223;SDS011;62585;49.706;18.216;2022-12-29T10:31:48;10.02;;;4.72;;
74223;SDS011;62585;49.706;18.216;2022-12-29T10:34:26;8.50;;;4.22;;
74223;SDS011;62585;49.706;18.216;2022-12-29T10:37:00;8.48;;;4.28;;
74223;SDS011;62585;49.706;18.216;2022-12-29T10:39:41;11.43;;;4.97;;
74223;SDS011;62585;49.706;18.216;2022-12-29T10:42:57;9.18;;;4.50;;
74223;SDS011;62585;49.706;18.216;2022-12-29T10:45:04;9.15;;;4.68;;
74223;SDS011;62585;49.706;18.216;2022-12-29T10:47:35;10.60;;;4.72;;
74223;SDS011;62585;49.706;18.216;2022-12-29T10:50:03;8.75;;;4.38;;
74223;SDS011;62585;49.706;18.216;2022-12-29T10:52:30;7.22;;;3.92;;
74223;SDS011;62585;49.706;18.216;2022-12-29T10:55:05;6.18;;;3.97;;
74223;SDS011;62585;49.706;18.216;2022-12-29T10:57:41;5.78;;;3.42;;
74223;SDS011;62585;49.706;18.216;2022-12-29T11:02:59;5.35;;;3.30;;
74223;SDS011;62585;49.706;18.216;2022-12-29T11:06:07;8.80;;;4.03;;
74223;SDS011;62585;49.706;18.216;2022-12-29T11:11:05;5.88;;;3.00;;
74223;SDS011;62585;49.706;18.216;2022-12-29T11:13:48;9.23;;;4.15;;
74223;SDS011;62585;49.706;18.216;2022-12-29T11:16:29;8.05;;;4.55;;
74223;SDS011;62585;49.706;18.216;2022-12-29T11:18:56;7.70;;;3.55;;
74223;SDS011;62585;49.706;18.216;2022-12-29T11:21:33;5.45;;;3.25;;
74223;SDS011;62585;49.706;18.216;2022-12-29T11:24:23;4.40;;;2.78;;
74223;SDS011;62585;49.706;18.216;2022-12-29T11:26:52;7.68;;;3.83;;
74223;SDS011;62585;49.706;18.216;2022-12-29T11:29:29;6.75;;;3.70;;
74223;SDS011;62585;49.706;18.216;2022-12-29T11:32:10;9.38;;;5.05;;
74223;SDS011;62585;49.706;18.216;2022-12-29T11:34:38;9.70;;;5.18;;
74223;SDS011;62585;49.706;18.216;2022-12-29T11:37:04;10.48;;;5.82;;
74223;SDS011;62585;49.706;18.216;2022-12-29T11:42:17;12.02;;;5.25;;
74223;SDS011;62585;49.706;18.216;2022-12-29T11:44:47;11.27;;;5.88;;
74223;SDS011;62585;49.706;18.216;2022-12-29T11:47:27;10.80;;;6.10;;
74223;SDS011;62585;49.706;18.216;2022-12-29T11:49:57;9.07;;;5.20;;
74223;SDS011;62585;49.706;18.216;2022-12-29T11:52:31;10.30;;;6.10;;
74223;SDS011;62585;49.706;18.216;2022-12-29T11:55:00;8.07;;;5.10;;
74223;SDS011;62585;49.706;18.216;2022-12-29T11:57:28;7.70;;;4.88;;
74223;SDS011;62585;49.706;18.216;2022-12-29T11:59:55;5.43;;;3.25;;
74223;SDS011;62585;49.706;18.216;2022-12-29T12:13:20;10.25;;;5.25;;
74223;SDS011;62585;49.706;18.216;2022-12-29T12:18:47;12.55;;;5.07;;
74223;SDS011;62585;49.706;18.216;2022-12-29T12:23:50;7.80;;;4.22;;
74223;SDS011;62585;49.706;18.216;2022-12-29T12:26:37;8.60;;;4.60;;
74223;SDS011;62585;49.706;18.216;2022-12-29T12:29:14;9.57;;;5.35;;
74223;SDS011;62585;49.706;18.216;2022-12-29T12:31:49;10.65;;;6.00;;
74223;SDS011;62585;49.706;18.216;2022-12-29T12:34:26;8.20;;;4.43;;
74223;SDS011;62585;49.706;18.216;2022-12-29T12:48:23;9.85;;;4.88;;
74223;SDS011;62585;49.706;18.216;2022-12-29T12:50:56;7.53;;;3.25;;
74223;SDS011;62585;49.706;18.216;2022-12-29T13:04:08;5.53;;;3.33;;
74223;SDS011;62585;49.706;18.216;2022-12-29T13:12:06;5.18;;;2.58;;
74223;SDS011;62585;49.706;18.216;2022-12-29T13:17:46;5.05;;;2.80;;
74223;SDS011;62585;49.706;18.216;2022-12-29T13:22:58;7.43;;;2.78;;
74223;SDS011;62585;49.706;18.216;2022-12-29T13:25:50;5.43;;;3.08;;
74223;SDS011;62585;49.706;18.216;2022-12-29T13:36:56;12.23;;;5.45;;
74223;SDS011;62585;49.706;18.216;2022-12-29T13:39:27;12.10;;;5.70;;
74223;SDS011;62585;49.706;18.216;2022-12-29T13:41:57;6.30;;;3.80;;
74223;SDS011;62585;49.706;18.216;2022-12-29T13:44:28;7.72;;;4.13;;
74223;SDS011;62585;49.706;18.216;2022-12-29T13:47:00;12.77;;;5.50;;
74223;SDS011;62585;49.706;18.216;2022-12-29T13:49:31;12.77;;;5.70;;
74223;SDS011;62585;49.706;18.216;2022-12-29T13:51:59;13.13;;;5.80;;
74223;SDS011;62585;49.706;18.216;2022-12-29T14:00:14;16.88;;;7.40;;
74223;SDS011;62585;49.706;18.216;2022-12-29T14:07:43;3.78;;;2.30;;
74223;SDS011;62585;49.706;18.216;2022-12-29T14:10:28;7.40;;;3.10;;
74223;SDS011;62585;49.706;18.216;2022-12-29T14:13:09;5.15;;;3.22;;
74223;SDS011;62585;49.706;18.216;2022-12-29T14:15:39;13.50;;;5.53;;
74223;SDS011;62585;49.706;18.216;2022-12-29T14:18:25;8.13;;;3.80;;
74223;SDS011;62585;49.706;18.216;2022-12-29T14:23:40;5.95;;;3.30;;
74223;SDS011;62585;49.706;18.216;2022-12-29T14:26:16;15.57;;;7.75;;
74223;SDS011;62585;49.706;18.216;2022-12-29T14:28:54;13.40;;;6.72;;
74223;SDS011;62585;49.706;18.216;2022-12-29T14:36:37;4.45;;;2.95;;
74223;SDS011;62585;49.706;18.216;2022-12-29T14:44:51;10.57;;;6.28;;
74223;SDS011;62585;49.706;18.216;2022-12-29T14:50:22;8.80;;;5.05;;
74223;SDS011;62585;49.706;18.216;2022-12-29T14:52:57;8.20;;;4.13;;
74223;SDS011;62585;49.706;18.216;2022-12-29T14:58:20;10.45;;;4.85;;
74223;SDS011;62585;49.706;18.216;2022-12-29T15:00:52;12.38;;;5.80;;
74223;SDS011;62585;49.706;18.216;2022-12-29T15:03:22;9.05;;;3.97;;
74223;SDS011;62585;49.706;18.216;2022-12-29T15:05:54;10.02;;;5.40;;
74223;SDS011;62585;49.706;18.216;2022-12-29T15:08:23;15.85;;;7.20;;
74223;SDS011;62585;49.706;18.216;2022-12-29T15:13:38;12.55;;;6.03;;
74223;SDS011;62585;49.706;18.216;2022-12-29T15:19:05;9.23;;;4.32;;
74223;SDS011;62585;49.706;18.216;2022-12-29T15:21:46;8.35;;;4.93;;
74223;SDS011;62585;49.706;18.216;2022-12-29T15:24:13;11.82;;;6.32;;
74223;SDS011;62585;49.706;18.216;2022-12-29T15:26:40;4.65;;;3.55;;
74223;SDS011;62585;49.706;18.216;2022-12-29T15:29:27;7.72;;;4.97;;
74223;SDS011;62585;49.706;18.216;2022-12-29T15:34:45;7.15;;;4.32;;
74223;SDS011;62585;49.706;18.216;2022-12-29T15:37:23;11.98;;;5.05;;
74223;SDS011;62585;49.706;18.216;2022-12-29T15:39:54;9.68;;;5.20;;
74223;SDS011;62585;49.706;18.216;2022-12-29T15:44:58;11.82;;;5.70;;
74223;SDS011;62585;49.706;18.216;2022-12-29T15:47:24;9.57;;;4.55;;
74223;SDS011;62585;49.706;18.216;2022-12-29T15:49:59;11.80;;;5.90;;
74223;SDS011;62585;49.706;18.216;2022-12-29T15:52:31;7.38;;;4.60;;
74223;SDS011;62585;49.706;18.216;2022-12-29T15:54:59;8.98;;;4.90;;
74223;SDS011;62585;49.706;18.216;2022-12-29T15:57:27;13.50;;;6.57;;
74223;SDS011;62585;49.706;18.216;2022-12-29T16:00:01;9.75;;;5.20;;
74223;SDS011;62585;49.706;18.216;2022-12-29T16:02:27;10.10;;;5.78;;
74223;SDS011;62585;49.706;18.216;2022-12-29T16:04:54;7.90;;;3.85;;
74223;SDS011;62585;49.706;18.216;2022-12-29T16:07:24;12.90;;;6.38;;
74223;SDS011;62585;49.706;18.216;2022-12-29T16:09:57;10.43;;;4.50;;
74223;SDS011;62585;49.706;18.216;2022-12-29T16:12:34;12.02;;;6.22;;
74223;SDS011;62585;49.706;18.216;2022-12-29T16:17:33;7.93;;;4.20;;
74223;SDS011;62585;49.706;18.216;2022-12-29T16:20:23;15.95;;;6.07;;
74223;SDS011;62585;49.706;18.216;2022-12-29T16:22:57;4.45;;;3.17;;
74223;SDS011;62585;49.706;18.216;2022-12-29T16:25:28;15.13;;;5.78;;
74223;SDS011;62585;49.706;18.216;2022-12-29T16:27:57;8.10;;;4.85;;
74223;SDS011;62585;49.706;18.216;2022-12-29T16:32:52;8.00;;;3.83;;
74223;SDS011;62585;49.706;18.216;2022-12-29T16:35:27;11.02;;;4.72;;
74223;SDS011;62585;49.706;18.216;2022-12-29T16:38:21;11.20;;;4.75;;
74223;SDS011;62585;49.706;18.216;2022-12-29T16:40:58;13.38;;;5.70;;
74223;SDS011;62585;49.706;18.216;2022-12-29T16:43:31;11.18;;;5.40;;
74223;SDS011;62585;49.706;18.216;2022-12-29T16:51:01;18.00;;;7.93;;
74223;SDS011;62585;49.706;18.216;2022-12-29T16:53:38;13.85;;;6.88;;
74223;SDS011;62585;49.706;18.216;2022-12-29T16:56:16;14.13;;;6.25;;
74223;SDS011;62585;49.706;18.216;2022-12-29T16:58:48;14.40;;;6.53;;
74223;SDS011;62585;49.706;18.216;2022-12-29T17:01:19;13.82;;;6.57;;
74223;SDS011;62585;49.706;18.216;2022-12-29T17:03:52;16.25;;;7.00;;
74223;SDS011;62585;49.706;18.216;2022-12-29T17:06:23;15.40;;;6.72;;
74223;SDS011;62585;49.706;18.216;2022-12-29T17:08:49;13.63;;;6.13;;
74223;SDS011;62585;49.706;18.216;2022-12-29T17:11:22;12.95;;;6.82;;
74223;SDS011;62585;49.706;18.216;2022-12-29T17:14:26;9.85;;;5.68;;
74223;SDS011;62585;49.706;18.216;2022-12-29T17:17:04;11.10;;;5.68;;
74223;SDS011;62585;49.706;18.216;2022-12-29T17:19:36;10.23;;;6.60;;
74223;SDS011;62585;49.706;18.216;2022-12-29T17:22:08;15.43;;;6.28;;
74223;SDS011;62585;49.706;18.216;2022-12-29T17:24:37;16.73;;;7.95;;
74223;SDS011;62585;49.706;18.216;2022-12-29T17:27:03;16.38;;;7.55;;
74223;SDS011;62585;49.706;18.216;2022-12-29T17:32:01;12.02;;;5.35;;
74223;SDS011;62585;49.706;18.216;2022-12-29T17:34:28;13.35;;;6.00;;
74223;SDS011;62585;49.706;18.216;2022-12-29T17:36:54;12.73;;;5.93;;
74223;SDS011;62585;49.706;18.216;2022-12-29T17:39:20;12.65;;;6.05;;